Tiempo atmosférico en la estación meteorológica de Barcelona, Barcelona (25 m.)

Fecha
DESCASC
Temp. máxima en grados centígrados (hora)
DESCASC
Temp. mínima en grados centígrados (hora)
DESCASC
Temp. media en grados centígrados
DESCASC
Racha de viento máxima en m/sg (hora)
DESCASC
Velocidad máxima media en intervalos de 10 minutos(hora)
DESCASC
Precipitaciones diarias en mm
DESCASC
Precipitaciones de 00:00 a 06:00 en mm
DESCASC
Precipitaciones de 06:00 a 12:00 en mm
DESCASC
Precipitaciones de 12:00 a 18:00 en mm
DESCASC
Precipitaciones de 18:00 a 24:00 en mm
DESCASC
17-08-2017 28.2 (10:10) 23 (07:10) 25.6 9.44 (15:30) 7.22 (13:10) 0 0 0 0 0
16-08-2017 27.1 (16:40) 23.3 (07:20) 25.2 8.89 (04:20) 6.94 (03:40) 0 0 0 0 0
15-08-2017 27.8 (15:20) 21.7 (00:00) 24.8 7.5 (13:10) 6.11 (13:20) 0 0 0 0 0
14-08-2017 27 (11:00) 22.2 (06:50) 24.6 9.72 (13:30) 8.06 (13:30) 0 0 0 0 0
13-08-2017 26.7 (14:30) 20.2 (00:00) 23.5 8.61 (18:10) 6.11 (18:10) 0 0 0 0 0
12-08-2017 25.1 (11:40) 20.5 (00:00) 22.8 10.28 (00:20) 7.78 (00:10) 0 0 0 0 0
11-08-2017 24.5 (11:50) 19 (00:00) 21.8 12.22 (21:30) 9.17 (20:00) 0 0 0 0 0
10-08-2017 25.3 (14:00) 18.6 (00:00) 21.9 12.5 (18:10) 9.44 (18:10) 0.3 0.3 0 0 0
09-08-2017 -- (--) -- (--) -- 10.83 (19:10) 8.33 (18:30) 1.4 0 0 0 1.4
08-08-2017 27 (06:10) 23.7 (00:00) 25.4 17.5 (10:40) 15.28 (10:40) 2.8 0 0.1 2.7 0
07-08-2017 27.7 (17:10) 24.9 (00:00) 26.3 10.83 (15:30) 8.33 (15:30) 0 0 0 0 0
06-08-2017 28.9 (11:20) 25.3 (00:00) 27.1 7.5 (17:20) 5.56 (17:00) 0.1 0 0.1 0 0
05-08-2017 31.3 (16:50) 26 (00:00) 28.6 10.83 (15:50) 8.33 (15:00) 0 0 0 0 0
04-08-2017 30.8 (13:40) 25.3 (00:00) 28 6.94 (15:10) 5.83 (15:10) 0 0 0 0 0
03-08-2017 33.3 (10:30) 24.8 (00:00) 29 10 (10:50) 6.67 (11:00) 0 0 0 0 0
02-08-2017 31.3 (19:20) 24.5 (00:00) 27.9 7.22 (13:30) 6.39 (13:30) 0 0 0 0 0
01-08-2017 27.5 (14:50) 24.6 (00:00) 26.1 10.28 (19:50) 8.61 (19:50) 0.5 0 0 0.4 0.1
31-07-2017 27.1 (14:20) 24.2 (00:00) 25.7 11.39 (10:20) 10 (10:30) 0 0 0 0 0
30-07-2017 29.1 (13:50) 23.7 (00:00) 26.4 7.78 (17:20) 6.11 (18:10) 0 0 0 0 0
29-07-2017 28.8 (16:10) 22.8 (00:00) 25.8 5.83 (14:40) 4.17 (13:00) 0 0 0 0 0
28-07-2017 28 (12:50) 24.3 (00:00) 26.1 7.5 (13:40) 6.39 (15:30) 0 0 0 0 0
27-07-2017 27.8 (18:30) 21.5 (00:00) 24.6 9.44 (15:50) 7.5 (15:50) 0 0 0 0 0
26-07-2017 25.5 (12:40) 21.2 (00:00) 23.4 11.11 (01:10) 5.28 (01:10) 0.2 0.2 0 0 0
25-07-2017 25.5 (11:20) 22 (00:00) 23.8 11.11 (16:00) 8.89 (00:40) 0.4 0 0 0 0.4
24-07-2017 27.5 (15:00) 21.1 (00:00) 24.3 11.67 (16:00) 8.33 (21:30) 0 0 0 0 0
23-07-2017 27.9 (10:40) 22.1 (00:00) 25 11.11 (19:10) 8.89 (04:20) 3.2 0 0 0 3.2
22-07-2017 27.5 (13:40) 22.5 (00:00) 25 7.78 (18:50) 6.39 (18:50) 0 0 0 0 0

Gráficas

Temp. máximas Temp. mínimas Temp. medias Precipitaciones Rachas de viento máximas Velocidades máximas media en intervalos de 10 minutos

Datos horarios

Fecha y hora oficial Temperatura (ºC) Velocidad del viento (km/h) Dirección del viento Racha (km/h) Dirección de racha Precipitación (mm) Presión (hPa) Tendencia (hPa) Humedad (%)
2017-08-20 23:00:00 24.9 8 Sudoeste 17 Sur 0 -- -- 75
2017-08-20 22:00:00 24.8 12 Sur 22 Sur 0 -- -- 76
2017-08-20 21:00:00 24.8 14 Sur 24 Sur 0 -- -- 76
2017-08-20 20:00:00 25 18 Sur 28 Sudoeste 0 -- -- 74
2017-08-20 19:00:00 25 20 Sur 30 Sur 0 -- -- 73
2017-08-20 18:00:00 25 20 Sur 28 Sur 0 -- -- 72
2017-08-20 17:00:00 25.2 23 Sur 28 Sur 0 -- -- 69
2017-08-20 16:00:00 25.4 20 Sur 27 Sur 0 -- -- 66
2017-08-20 15:00:00 25.9 17 Sur 24 Sur 0 -- -- 63
2017-08-20 14:00:00 24.7 15 Sur 21 Sur 0 -- -- 65
2017-08-20 13:00:00 25.5 13 Sur 21 Sudeste 0 -- -- 59
2017-08-20 12:00:00 25.3 17 Sudeste 26 Sudeste 0 -- -- 61
2017-08-20 11:00:00 25.1 19 Sudeste 24 Sudeste 0 -- -- 66
2017-08-20 10:00:00 24.3 19 Sudeste 30 Sudeste 0 -- -- 73
2017-08-20 09:00:00 25 4 Sur 9 Sur 0 -- -- 75
2017-08-20 08:00:00 24.4 5 Sudoeste 10 Oeste 0 -- -- 78
2017-08-20 07:00:00 24.3 5 Sudoeste 17 Sudoeste 0 -- -- 78
2017-08-20 06:00:00 24.4 5 Sudoeste 13 Sudoeste 0 -- -- 78
2017-08-20 05:00:00 24.4 9 Sudoeste 15 Sudoeste 0 -- -- 77
2017-08-20 04:00:00 24.3 5 Sudoeste 12 Sudoeste 0 -- -- 78
2017-08-20 03:00:00 24.3 7 Sudoeste 14 Sudoeste 0 -- -- 78
2017-08-20 02:00:00 24.2 9 Sur 14 Sur 0 -- -- 80
2017-08-20 01:00:00 24.3 8 Sur 14 Sur 0 -- -- 79
2017-08-20 00:00:00 24.3 12 Sur 15 Sur 0 -- -- 79
2017-08-19 23:00:00 24.4 12 Sur 15 Sur 0 -- -- 78
2017-08-19 22:00:00 24.4 12 Sur 18 Sudoeste 0 -- -- 78
2017-08-19 21:00:00 24.5 15 Sur 21 Sur 0 -- -- 77
2017-08-19 20:00:00 24.5 17 Sur 25 Sudoeste 0 -- -- 77
2017-08-19 19:00:00 24.5 20 Sur 28 Sur 0 -- -- 77
2017-08-19 18:00:00 24.9 19 Sur 27 Sur 0 -- -- 76
2017-08-19 17:00:00 25.8 21 Sur 27 Sur 0 -- -- 71
2017-08-19 16:00:00 26.1 15 Sur 24 Sur 0 -- -- 70
2017-08-19 15:00:00 26.1 15 Sur 19 Sur 0 -- -- 68
2017-08-19 14:00:00 26 10 Sur 17 Sudeste 0 -- -- 67
2017-08-19 13:00:00 26.3 6 Sudeste 11 Sudeste 0 -- -- 70
2017-08-19 12:00:00 24.7 4 Este 21 Este 0 -- -- 77
2017-08-19 11:00:00 25.2 15 Este 29 Este 0 -- -- 73
2017-08-19 10:00:00 25.1 13 Sudeste 26 Sudeste 0 -- -- 79
2017-08-19 09:00:00 25.4 9 Sur 14 Sur 0 -- -- 81
2017-08-19 08:00:00 25.1 11 Sur 17 Este 0 -- -- 86
2017-08-19 07:00:00 25 8 Sudeste 10 Sudeste 0 -- -- 88
2017-08-19 06:00:00 25 4 Sudeste 7 Sudeste 0 -- -- 90
2017-08-19 05:00:00 25 5 Sudeste 10 Sudeste 0 -- -- 93
2017-08-19 04:00:00 25.2 0 Calma 6 Sur 0 -- -- 89
2017-08-19 03:00:00 25.4 5 Sur 7 Sur 0 -- -- 92
2017-08-19 02:00:00 25.4 0 Calma 15 Sudeste 0 -- -- 90
2017-08-19 01:00:00 25.5 18 Sudeste 21 Sudeste 0 -- -- 90
2017-08-19 00:00:00 25.6 18 Este 23 Este 0 -- -- 93
2017-08-18 23:00:00 25.8 10 Sudeste 14 Sudeste 0 -- -- 91
2017-08-18 22:00:00 25.8 11 Sur 21 Sur 0 -- -- 90
2017-08-18 21:00:00 26.2 12 Sur 21 Sudoeste 0 -- -- 82
2017-08-18 20:00:00 27.8 15 Sudoeste 40 Sudoeste 0 -- -- 65
2017-08-18 19:00:00 27.6 20 Sur 33 Sudoeste 0 -- -- 71
2017-08-18 18:00:00 27.4 24 Sur 33 Sur 0 -- -- 73
2017-08-18 17:00:00 26.8 27 Sur 36 Sur 0 -- -- 78
2017-08-18 16:00:00 26.8 27 Sur 36 Sur 0 -- -- 75
2017-08-18 15:00:00 27.4 30 Sur 38 Sudoeste 0 -- -- 68
2017-08-18 14:00:00 28.5 26 Sur 32 Sur 0 -- -- 59
2017-08-18 13:00:00 28.2 22 Sur 28 Sur 0 -- -- 60
2017-08-18 12:00:00 26.9 22 Sur 30 Sur 0 -- -- 70
2017-08-18 11:00:00 27.9 17 Sur 22 Sur 0 -- -- 54
2017-08-18 10:00:00 26.9 5 Sudeste 9 Sudeste 0 -- -- 68
2017-08-18 09:00:00 26.8 3 Noroeste 6 Noroeste 0 -- -- 65
2017-08-18 08:00:00 25.3 0 Calma 3 Oeste 0 -- -- 72
2017-08-18 07:00:00 24 4 Oeste 6 Oeste 0 -- -- 76
2017-08-18 06:00:00 24.1 0 Calma 5 Oeste 0 -- -- 78
2017-08-18 05:00:00 24.4 0 Calma -- -- 0 -- -- 77
2017-08-18 04:00:00 24.7 0 Calma -- -- 0 -- -- 75
2017-08-18 03:00:00 25.1 0 Calma 5 Oeste 0 -- -- 71
2017-08-18 02:00:00 25.5 5 Oeste 10 Sudoeste 0 -- -- 73
2017-08-18 01:00:00 25.7 7 Oeste 11 Sudoeste 0 -- -- 71
2017-08-18 00:00:00 25.7 3 Sudoeste 11 Sur 0 -- -- 76
2017-08-17 23:00:00 25.4 7 Sur 10 Sur 0 -- -- 79
2017-08-17 22:00:00 25.5 6 Sur 9 Sur 0 -- -- 77
2017-08-17 21:00:00 25.7 7 Sur 11 Sur 0 -- -- 75
2017-08-17 20:00:00 26.4 9 Sur 16 Sur 0 -- -- 74
2017-08-17 19:00:00 26.7 16 Sur 22 Sudoeste 0 -- -- 71
2017-08-17 18:00:00 26.9 17 Sur 24 Sur 0 -- -- 71
2017-08-17 17:00:00 26.9 20 Sur 29 Sur 0 -- -- 73
2017-08-17 16:00:00 26.8 23 Sur 34 Sudoeste 0 -- -- 72
2017-08-17 15:00:00 27.1 24 Sur 32 Sur 0 -- -- 69
2017-08-17 14:00:00 26.9 24 Sur 31 Sur 0 -- -- 66
2017-08-17 13:00:00 26.8 25 Sur 30 Sudoeste 0 -- -- 67
2017-08-17 12:00:00 26.9 21 Sur 27 Sur 0 -- -- 63
2017-08-17 11:00:00 27.6 14 Sur 19 Sur 0 -- -- 59
2017-08-17 10:00:00 28.1 6 Sudeste 8 Este 0 -- -- 54
2017-08-17 09:00:00 26.6 0 Calma 8 Norte 0 -- -- 56
2017-08-17 08:00:00 23.9 5 Noroeste 13 Noroeste 0 -- -- 64
2017-08-17 07:00:00 23.2 9 Noroeste 13 Norte 0 -- -- 65
2017-08-17 06:00:00 23.4 11 Noroeste 13 Noroeste 0 -- -- 64
2017-08-17 05:00:00 23.7 10 Norte 13 Norte 0 -- -- 61
2017-08-17 04:00:00 24.1 9 Norte 12 Norte 0 -- -- 60
2017-08-17 03:00:00 24.3 8 Noroeste 10 Noroeste 0 -- -- 59
2017-08-17 02:00:00 24.8 8 Norte 10 Norte 0 -- -- 57
2017-08-17 01:00:00 25 5 Norte 8 Norte 0 -- -- 54
2017-08-17 00:00:00 25.1 4 Norte 7 Nordeste 0 -- -- 56
2017-08-16 23:00:00 24.8 4 Nordeste 13 Nordeste 0 -- -- 66
2017-08-16 22:00:00 24.6 9 Nordeste 24 Este 0 -- -- 71
2017-08-16 21:00:00 24.6 18 Este 23 Este 0 -- -- 72
2017-08-16 20:00:00 25 17 Este 23 Este 0 -- -- 72
2017-08-16 19:00:00 25.4 17 Este 22 Este 0 -- -- 71
2017-08-16 18:00:00 26.2 17 Este 23 Este 0 -- -- 68
2017-08-16 17:00:00 26.8 16 Este 19 Este 0 -- -- 64
2017-08-16 16:00:00 26.7 14 Este 21 Este 0 -- -- 68
2017-08-16 15:00:00 26.6 17 Este 24 Sudeste 0 -- -- 68
2017-08-16 14:00:00 25.9 15 Este 19 Este 0 -- -- 72
2017-08-16 13:00:00 26 14 Este 19 Este 0 -- -- 71
2017-08-16 12:00:00 26 10 Este 15 Este 0 -- -- 76
2017-08-16 11:00:00 24.6 11 Este 17 Este 0 -- -- 81
2017-08-16 10:00:00 24.8 12 Este 17 Este 0 -- -- 79
2017-08-16 09:00:00 24.1 6 Este 10 Este 0 -- -- 84
2017-08-16 08:00:00 23.7 3 Este 8 Este 0 -- -- 86
2017-08-16 07:00:00 23.4 6 Este 14 Nordeste 0 -- -- 86
2017-08-16 06:00:00 23.8 7 Nordeste 26 Este 0 -- -- 88
2017-08-16 05:00:00 23.7 11 Este 32 Este 0 -- -- 89
2017-08-16 04:00:00 24.2 25 Este 30 Este 0 -- -- 88
2017-08-16 03:00:00 24.6 20 Este 24 Este 0 -- -- 89
2017-08-16 02:00:00 24.9 18 Este 23 Este 0 -- -- 90
2017-08-16 01:00:00 24.9 13 Este 18 Este 0 -- -- 90
2017-08-16 00:00:00 24.8 12 Este 17 Este 0 -- -- 91
2017-08-15 23:00:00 24.9 13 Este 19 Este 0 -- -- 91
2017-08-15 22:00:00 25 17 Este 20 Este 0 -- -- 89
2017-08-15 21:00:00 25.1 10 Este 18 Este 0 -- -- 86
2017-08-15 20:00:00 25.3 12 Este 17 Este 0 -- -- 86
2017-08-15 19:00:00 25.7 9 Sudeste 19 Sudeste 0 -- -- 82
2017-08-15 18:00:00 26.1 14 Este 22 Este 0 -- -- 78
2017-08-15 17:00:00 26 15 Este 21 Nordeste 0 -- -- 77
2017-08-15 16:00:00 26.9 15 Este 18 Este 0 -- -- 73
2017-08-15 15:00:00 27.1 12 Sudeste 20 Sudeste 0 -- -- 71
2017-08-15 14:00:00 26.4 17 Sudeste 27 Este 0 -- -- 73
2017-08-15 13:00:00 25.7 20 Este 26 Este 0 -- -- 76
2017-08-15 12:00:00 25.6 17 Este 23 Este 0 -- -- 74
2017-08-15 11:00:00 25.3 16 Este 20 Este 0 -- -- 77
2017-08-15 10:00:00 25.5 5 Nordeste 15 Norte 0 -- -- 65
2017-08-15 09:00:00 23.6 8 Norte 17 Norte 0 -- -- 65
2017-08-15 08:00:00 22.3 10 Norte 21 Norte 0 -- -- 69
2017-08-15 07:00:00 21.9 9 Norte 15 Norte 0 -- -- 76
2017-08-15 06:00:00 22.1 8 Norte 15 Noroeste 0 -- -- 75
2017-08-15 05:00:00 22.3 8 Norte 14 Noroeste 0 -- -- 77
2017-08-15 04:00:00 22.8 6 Norte 12 Norte 0 -- -- 76
2017-08-15 03:00:00 23.4 5 Este 6 Este 0 -- -- 75
2017-08-15 02:00:00 23.8 2 Este 8 Este 0 -- -- 76
2017-08-15 01:00:00 24 5 Este 9 Este 0 -- -- 76
2017-08-15 00:00:00 24.4 6 Sudeste 12 Sudeste 0 -- -- 73
2017-08-14 23:00:00 24.8 7 Sudeste 13 Sur 0 -- -- 71
2017-08-14 22:00:00 24.9 9 Sur 12 Sur 0 -- -- 69
2017-08-14 21:00:00 25.1 8 Sur 16 Sur 0 -- -- 70
2017-08-14 20:00:00 25.6 14 Sur 22 Sur 0 -- -- 70
2017-08-14 19:00:00 25.8 20 Sur 24 Sur 0 -- -- 70
2017-08-14 18:00:00 25.7 20 Sur 27 Sur 0 -- -- 69
2017-08-14 17:00:00 25.8 21 Sur 28 Sur 0 -- -- 69
2017-08-14 16:00:00 25.8 23 Sur 30 Sur 0 -- -- 72
2017-08-14 15:00:00 25.6 23 Sur 30 Sur 0 -- -- 74
2017-08-14 14:00:00 25.4 24 Sur 35 Sur 0 -- -- 74
2017-08-14 13:00:00 25.5 25 Sur 34 Sur 0 -- -- 72
2017-08-14 12:00:00 25.2 26 Sur 31 Sur 0 -- -- 72
2017-08-14 11:00:00 26.6 11 Sudoeste 22 Sudoeste 0 -- -- 60
2017-08-14 10:00:00 25.6 10 Oeste 19 Sudoeste 0 -- -- 62
2017-08-14 09:00:00 24.4 11 Oeste 20 Oeste 0 -- -- 67
2017-08-14 08:00:00 23.6 10 Oeste 18 Oeste 0 -- -- 72
2017-08-14 07:00:00 22.4 10 Oeste 16 Oeste 0 -- -- 77
2017-08-14 06:00:00 23 6 Oeste 14 Oeste 0 -- -- 75
2017-08-14 05:00:00 23 8 Oeste 13 Oeste 0 -- -- 79
2017-08-14 04:00:00 23.3 7 Oeste 13 Noroeste 0 -- -- 77
2017-08-14 03:00:00 23.5 8 Oeste 12 Oeste 0 -- -- 75
2017-08-14 02:00:00 23.9 6 Oeste 13 Oeste 0 -- -- 73
2017-08-14 01:00:00 24.2 10 Oeste 16 Oeste 0 -- -- 72
2017-08-14 00:00:00 24.3 9 Oeste 15 Oeste 0 -- -- 72
2017-08-13 23:00:00 24.4 7 Oeste 14 Sudoeste 0 -- -- 71
2017-08-13 22:00:00 24.8 9 Sudoeste 18 Sur 0 -- -- 72
2017-08-13 21:00:00 24.8 12 Sur 23 Sur 0 -- -- 73
2017-08-13 20:00:00 25.2 19 Sur 25 Sur 0 -- -- 70
2017-08-13 19:00:00 25.5 21 Sur 31 Sur 0 -- -- 72
2017-08-13 18:00:00 25.5 21 Sur 28 Sur 0 -- -- 73
2017-08-13 17:00:00 25.5 21 Sur 28 Sur 0 -- -- 70
2017-08-13 16:00:00 25.7 17 Sur 23 Sur 0 -- -- 68
2017-08-13 15:00:00 25.6 17 Sur 23 Sur 0 -- -- 68
2017-08-13 14:00:00 25.9 14 Sur 22 Sudeste 0 -- -- 68
2017-08-13 13:00:00 25.6 13 Sur 18 Sur 0 -- -- 66
2017-08-13 12:00:00 26.3 9 Sudeste 15 Sudeste 0 -- -- 59
2017-08-13 11:00:00 25.4 10 Noroeste 17 Noroeste 0 -- -- 58
2017-08-13 10:00:00 23.9 12 Noroeste 18 Noroeste 0 -- -- 59
2017-08-13 09:00:00 22.5 7 Noroeste 10 Noroeste 0 -- -- 61
2017-08-13 08:00:00 22 5 Noroeste 9 Noroeste 0 -- -- 65
2017-08-13 07:00:00 20.2 7 Noroeste 10 Noroeste 0 -- -- 69
2017-08-13 06:00:00 20.6 5 Noroeste 8 Noroeste 0 -- -- 69
2017-08-13 05:00:00 21.3 5 Noroeste 8 Noroeste 0 -- -- 66
2017-08-13 04:00:00 22 5 Noroeste 9 Noroeste 0 -- -- 64
2017-08-13 03:00:00 22.1 6 Noroeste 13 Noroeste 0 -- -- 63
2017-08-13 02:00:00 22.6 7 Noroeste 11 Noroeste 0 -- -- 63
2017-08-13 01:00:00 23.1 3 Oeste 7 Oeste 0 -- -- 61
2017-08-13 00:00:00 23.4 6 Oeste 17 Oeste 0 -- -- 62
2017-08-12 23:00:00 23.5 6 Oeste 15 Oeste 0 -- -- 61
2017-08-12 22:00:00 23.6 8 Sudoeste 18 Sudoeste 0 -- -- 60
2017-08-12 21:00:00 24 10 Sudoeste 20 Sur 0 -- -- 61
2017-08-12 20:00:00 24.2 14 Sur 22 Sur 0 -- -- 61
2017-08-12 19:00:00 24.6 15 Sur 24 Sur 0 -- -- 56
2017-08-12 18:00:00 24.5 19 Sur 29 Sur 0 -- -- 62
2017-08-12 17:00:00 24.3 21 Sur 32 Sur 0 -- -- 69
2017-08-12 16:00:00 24.4 21 Sur 31 Sur 0 -- -- 68
2017-08-12 15:00:00 24.5 19 Sur 27 Sudeste 0 -- -- 66
2017-08-12 14:00:00 24.6 19 Sudeste 28 Sudeste 0 -- -- 66
2017-08-12 13:00:00 24.1 24 Sudeste 33 Sudeste 0 -- -- 66
2017-08-12 12:00:00 24.1 23 Sudeste 29 Sudeste 0 -- -- 67
2017-08-12 11:00:00 24.4 12 Sudeste 15 Este 0 -- -- 65
2017-08-12 10:00:00 23.9 4 Nordeste 12 Noroeste 0 -- -- 67
2017-08-12 09:00:00 22.3 8 Norte 15 Noroeste 0 -- -- 71
2017-08-12 08:00:00 20.6 6 Norte 15 Norte 0 -- -- 79
2017-08-12 07:00:00 20.6 8 Norte 14 Norte 0 -- -- 82
2017-08-12 06:00:00 20.8 7 Norte 12 Norte 0 -- -- 78
2017-08-12 05:00:00 21 8 Norte 17 Norte 0 -- -- 73
2017-08-12 04:00:00 22.4 7 Oeste 26 Sur 0 -- -- 70
2017-08-12 03:00:00 22.7 18 Sur 30 Sur 0 -- -- 73
2017-08-12 02:00:00 22.9 15 Sur 29 Sur 0 -- -- 71
2017-08-12 01:00:00 22.7 21 Sudeste 37 Sudeste 0 -- -- 73
2017-08-12 00:00:00 22.7 28 Sudeste 34 Sudeste 0 -- -- 72
2017-08-11 23:00:00 22.6 27 Sudeste 40 Sudeste 0 -- -- 73
2017-08-11 22:00:00 22.6 29 Sudeste 44 Sudeste 0 -- -- 72
2017-08-11 21:00:00 22.8 30 Sudeste 41 Sudeste 0 -- -- 69
2017-08-11 20:00:00 22.9 33 Sudeste 40 Sudeste 0 -- -- 70
2017-08-11 19:00:00 23.2 31 Sudeste 38 Sudeste 0 -- -- 68
2017-08-11 18:00:00 23.3 24 Sudeste 34 Sudeste 0 -- -- 66
2017-08-11 17:00:00 23.5 24 Sudeste 33 Sudeste 0 -- -- 64
2017-08-11 16:00:00 23.7 18 Sudeste 30 Sudeste 0 -- -- 62
2017-08-11 15:00:00 23.7 17 Sur 24 Sur 0 -- -- 60
2017-08-11 14:00:00 23.5 14 Sur 21 Sur 0 -- -- 59
2017-08-11 13:00:00 24 12 Sur 18 Sudeste 0 -- -- 55
2017-08-11 12:00:00 23.5 8 Sudeste 18 Este 0 -- -- 55
2017-08-11 11:00:00 22.6 8 Nordeste 22 Noroeste 0 -- -- 51
2017-08-11 10:00:00 20.7 15 Noroeste 31 Noroeste 0 -- -- 53
2017-08-11 09:00:00 19.5 15 Noroeste 28 Noroeste 0 -- -- 54
2017-08-11 08:00:00 19.1 13 Noroeste 25 Norte 0 -- -- 55
2017-08-11 07:00:00 19.6 9 Noroeste 18 Noroeste 0 -- -- 56
2017-08-11 06:00:00 19.8 9 Noroeste 21 Noroeste 0 -- -- 59
2017-08-11 05:00:00 20.3 10 Noroeste 18 Noroeste 0 -- -- 63
2017-08-11 04:00:00 20.4 7 Norte 14 Norte 0 -- -- 67
2017-08-11 03:00:00 20.5 7 Norte 13 Noroeste 0 -- -- 68
2017-08-11 02:00:00 20.6 8 Norte 17 Norte 0 -- -- 68
2017-08-11 01:00:00 21.3 7 Norte 32 Este 0 -- -- 70
2017-08-11 00:00:00 21.6 9 Norte 44 Este 0 -- -- 66
2017-08-10 23:00:00 22.1 22 Nordeste 39 Este 0 -- -- 70
2017-08-10 22:00:00 24.1 13 Sudoeste 35 Sur 0 -- -- 62
2017-08-10 21:00:00 24.2 14 Sur 27 Sur 0 -- -- 59
2017-08-10 20:00:00 24.5 19 Sudoeste 40 Sudoeste 0 -- -- 55
2017-08-10 19:00:00 24.1 28 Sur 45 Sudoeste 0 -- -- 51
2017-08-10 18:00:00 23.8 31 Sur 41 Sur 0 -- -- 51
2017-08-10 17:00:00 24.3 28 Sur 43 Sur 0 -- -- 50
2017-08-10 16:00:00 23.5 33 Sur 41 Sur 0 -- -- 53
2017-08-10 15:00:00 23.3 27 Sur 35 Sur 0 -- -- 50
2017-08-10 14:00:00 24.9 9 Oeste 26 Oeste 0 -- -- 40
2017-08-10 13:00:00 23.5 11 Noroeste 20 Noroeste 0 -- -- 43
2017-08-10 12:00:00 22.3 7 Noroeste 20 Oeste 0 -- -- 55
2017-08-10 11:00:00 22.1 0 Calma 16 Noroeste 0 -- -- 57
2017-08-10 10:00:00 19.6 10 Noroeste 21 Noroeste 0 -- -- 67
2017-08-10 09:00:00 19.2 5 Norte 15 Noroeste 0 -- -- 69
2017-08-10 08:00:00 18.7 7 Noroeste 18 Norte 0 -- -- 71
2017-08-10 07:00:00 18.9 7 Noroeste 15 Oeste 0 -- -- 73
2017-08-10 06:00:00 19 10 Oeste 17 Oeste 0 -- -- 72
2017-08-10 05:00:00 19.3 6 Noroeste 12 Noroeste 0.1 -- -- 76
2017-08-10 04:00:00 18.8 6 Noroeste 28 Noroeste 0 -- -- 81
2017-08-10 03:00:00 19.3 9 Noroeste 21 Oeste 0.1 -- -- 78
2017-08-10 02:00:00 19.3 3 Nordeste 15 Oeste 0 -- -- 79
2017-08-10 01:00:00 19.5 6 Oeste 26 Noroeste 0.1 -- -- 76
2017-08-10 00:00:00 19.7 7 Noroeste 16 Oeste 0.7 -- -- 79
2017-08-09 23:00:00 20.1 12 Oeste 35 Noroeste 0.6 -- -- 74
2017-08-09 22:00:00 19.8 14 Noroeste 31 Norte 0.1 -- -- 80
2017-08-09 21:00:00 22.4 10 Norte 29 Noroeste 0 -- -- 60
2017-08-09 20:00:00 23.8 22 Este 39 Este 0 -- -- 53
2017-08-09 19:00:00 24 30 Este 39 Este 0 -- -- 55
2017-08-09 18:00:00 24.4 27 Este 36 Este 0 -- -- 56
2017-08-09 17:00:00 24.7 22 Este 33 Este 0 -- -- 57
2017-08-09 16:00:00 24.5 20 Sudeste 31 Sudeste 0 -- -- 59
2017-08-09 15:00:00 24.1 23 Sudeste 28 Sudeste 0 -- -- 59
2017-08-09 14:00:00 25.1 20 Sudeste 26 Sudeste 0 -- -- 58
2017-08-09 13:00:00 24.6 16 Sudeste 23 Sudeste 0 -- -- 57
2017-08-09 12:00:00 -- 16 Sudeste 22 Sudeste 0 -- -- --
2017-08-09 11:00:00 -- 9 Norte 16 Norte 0 -- -- --
2017-08-09 10:00:00 -- 6 Norte 13 Norte 0 -- -- --
2017-08-09 09:00:00 -- 5 Noroeste 18 Norte 0 -- -- --
2017-08-09 08:00:00 21.5 10 Norte 18 Norte 0 -- -- 59
2017-08-09 07:00:00 20.9 7 Norte 19 Norte 0 -- -- 59
2017-08-09 06:00:00 21.5 7 Norte 14 Norte 0 -- -- 58
2017-08-09 05:00:00 21.6 8 Norte 16 Norte 0 -- -- 56
2017-08-09 04:00:00 22.1 4 Norte 14 Norte 0 -- -- 55
2017-08-09 03:00:00 22.3 6 Norte 18 Norte 0 -- -- 52
2017-08-09 02:00:00 22.6 9 Norte 19 Noroeste 0 -- -- 52
2017-08-09 01:00:00 23.3 10 Noroeste 18 Norte 0 -- -- 54
2017-08-09 00:00:00 24 6 Sudeste 22 Este 0 -- -- 58
2017-08-08 23:00:00 24.4 16 Este 21 Este 0 -- -- 56
2017-08-08 22:00:00 24.8 15 Este 20 Este 0 -- -- 55
2017-08-08 21:00:00 25 17 Este 24 Sudeste 0 -- -- 60
2017-08-08 20:00:00 25.7 18 Sudeste 24 Este 0 -- -- 58
2017-08-08 19:00:00 25.6 20 Este 30 Sudeste 0 -- -- 58
2017-08-08 18:00:00 25.5 26 Este 32 Este 0 -- -- 60
2017-08-08 17:00:00 25.7 24 Este 30 Este 0 -- -- 56
2017-08-08 16:00:00 25.2 18 Este 28 Este 0 -- -- 60
2017-08-08 15:00:00 26.4 20 Este 29 Este 0.1 -- -- 64
2017-08-08 14:00:00 25.1 18 Este 37 Este 2.6 -- -- 73
2017-08-08 13:00:00 25 31 Este 53 Este 0 -- -- 73
2017-08-08 12:00:00 25.1 50 Este 60 Este 0.1 -- -- 75
2017-08-08 11:00:00 24.5 18 Nordeste 63 Este 0 -- -- 79
2017-08-08 10:00:00 26.7 33 Sudeste 38 Sudeste 0 -- -- 85
2017-08-08 09:00:00 26.6 18 Sudeste 30 Sudeste 0 -- -- 86
2017-08-08 08:00:00 26.4 11 Sudeste 19 Sudoeste 0 -- -- 87
2017-08-08 07:00:00 26.5 14 Sur 23 Sur 0 -- -- 90
2017-08-08 06:00:00 26.8 9 Sudoeste 22 Sudoeste 0 -- -- 88
2017-08-08 05:00:00 26.8 14 Sudoeste 22 Sudoeste 0 -- -- 87
2017-08-08 04:00:00 26.3 14 Sur 19 Sur 0 -- -- 89
2017-08-08 03:00:00 26.5 12 Sudoeste 16 Sur 0 -- -- 89
2017-08-08 02:00:00 26.4 14 Sur 19 Sur 0 -- -- 88
2017-08-08 01:00:00 26.4 5 Sur 14 Sudoeste 0 -- -- 85
2017-08-08 00:00:00 26.6 10 Sur 16 Sur 0 -- -- 81
2017-08-07 23:00:00 26.7 11 Sudoeste 22 Sudoeste 0 -- -- 77
2017-08-07 22:00:00 26.6 14 Sur 22 Sudoeste 0 -- -- 77
2017-08-07 21:00:00 26.6 15 Sur 21 Sur 0 -- -- 78
2017-08-07 20:00:00 26.8 17 Sur 21 Sur 0 -- -- 76
2017-08-07 19:00:00 27.1 15 Sur 23 Sur 0 -- -- 71
2017-08-07 18:00:00 27.3 19 Sur 28 Sur 0 -- -- 69
2017-08-07 17:00:00 27.3 21 Sur 33 Sur 0 -- -- 65
2017-08-07 16:00:00 27.3 28 Sur 39 Sudoeste 0 -- -- 64
2017-08-07 15:00:00 27.3 24 Sur 32 Sur 0 -- -- 71
2017-08-07 14:00:00 27.1 25 Sur 29 Sur 0 -- -- 67
2017-08-07 13:00:00 27 22 Sur 30 Sur 0 -- -- 70
2017-08-07 12:00:00 27.4 18 Sur 25 Sur 0 -- -- 67
2017-08-07 11:00:00 27 18 Sur 23 Sur 0 -- -- 67
2017-08-07 10:00:00 26.7 11 Sudoeste 23 Sudoeste 0 -- -- 63
2017-08-07 09:00:00 26.5 8 Oeste 15 Oeste 0 -- -- 65
2017-08-07 08:00:00 25.9 4 Oeste 8 Noroeste 0 -- -- 67
2017-08-07 07:00:00 25 4 Norte 6 Norte 0 -- -- 71
2017-08-07 06:00:00 25 0 Calma 4 Oeste 0 -- -- 71
2017-08-07 05:00:00 25.3 3 Oeste 10 Oeste 0 -- -- 69
2017-08-07 04:00:00 25.4 4 Oeste 10 Noroeste 0 -- -- 69
2017-08-07 03:00:00 25.4 6 Oeste 9 Oeste 0 -- -- 69
2017-08-07 02:00:00 25.6 5 Oeste 13 Sudoeste 0 -- -- 69
2017-08-07 01:00:00 25.6 5 Sudoeste 12 Sur 0 -- -- 70
2017-08-07 00:00:00 25.5 9 Sur 12 Sudoeste 0 -- -- 71
2017-08-06 23:00:00 25.5 7 Sur 14 Sur 0 -- -- 72
2017-08-06 22:00:00 25.5 10 Sur 18 Sur 0 -- -- 73
2017-08-06 21:00:00 25.6 14 Sur 21 Sur 0 -- -- 72
2017-08-06 20:00:00 26.3 14 Sur 23 Sur 0 -- -- 71
2017-08-06 19:00:00 26.4 18 Sur 23 Sur 0 -- -- 69
2017-08-06 18:00:00 27 16 Sur 27 Sur 0 -- -- 69
2017-08-06 17:00:00 26.5 20 Sur 24 Sur 0 -- -- 69
2017-08-06 16:00:00 26.8 16 Sur 22 Sur 0 -- -- 70
2017-08-06 15:00:00 27 18 Sur 24 Sur 0 -- -- 72
2017-08-06 14:00:00 27.7 17 Sur 23 Sudeste 0 -- -- 72
2017-08-06 13:00:00 28 17 Sur 22 Sur 0 -- -- 71
2017-08-06 12:00:00 28.2 10 Sur 15 Sur 0 -- -- 73
2017-08-06 11:00:00 28.7 10 Sudeste 15 Sudeste 0 -- -- 70
2017-08-06 10:00:00 27.8 4 Este 14 Sudeste 0 -- -- 70
2017-08-06 09:00:00 26.6 6 Norte 12 Norte 0 -- -- 73
2017-08-06 08:00:00 26.2 6 Nordeste 11 Nordeste 0.1 -- -- 77
2017-08-06 07:00:00 26 6 Norte 13 Norte 0 -- -- 78
2017-08-06 06:00:00 26.4 0 Calma 8 Noroeste 0 -- -- 80
2017-08-06 05:00:00 26.8 6 Norte 10 Noroeste 0 -- -- 74
2017-08-06 04:00:00 27 6 Noroeste 12 Noroeste 0 -- -- 75
2017-08-06 03:00:00 26.8 4 Noroeste 9 Noroeste 0 -- -- 85
2017-08-06 02:00:00 26.4 0 Calma 7 Sudeste 0 -- -- 93
2017-08-06 01:00:00 26.5 6 Sudeste 8 Sudeste 0 -- -- 94
2017-08-06 00:00:00 26.8 8 Sudeste 13 Sudeste 0 -- -- 93
2017-08-05 23:00:00 27.1 5 Sur 12 Sudeste 0 -- -- 87
2017-08-05 22:00:00 27.3 8 Sudeste 17 Sudeste 0 -- -- 87
2017-08-05 21:00:00 28.2 10 Sur 23 Sudoeste 0 -- -- 73
2017-08-05 20:00:00 29.2 18 Sudoeste 31 Sur 0 -- -- 65
2017-08-05 19:00:00 29.7 19 Sur 33 Sur 0 -- -- 63
2017-08-05 18:00:00 29.7 23 Sur 32 Sur 0 -- -- 64
2017-08-05 17:00:00 30.3 23 Sur 35 Sudoeste 0 -- -- 59
2017-08-05 16:00:00 30.6 25 Sur 39 Sudoeste 0 -- -- 59
2017-08-05 15:00:00 29 30 Sur 35 Sur 0 -- -- 65
2017-08-05 14:00:00 29.9 25 Sur 32 Sur 0 -- -- 59
2017-08-05 13:00:00 29.2 27 Sur 32 Sur 0 -- -- 58
2017-08-05 12:00:00 29.9 8 Sur 14 Sur 0 -- -- 66
2017-08-05 11:00:00 29.6 6 Este 9 Este 0 -- -- 67
2017-08-05 10:00:00 29.6 7 Este 12 Este 0 -- -- 63
2017-08-05 09:00:00 28.5 4 Nordeste 10 Norte 0 -- -- 59
2017-08-05 08:00:00 27.5 4 Norte 13 Norte 0 -- -- 65
2017-08-05 07:00:00 26.1 8 Norte 12 Norte 0 -- -- 69
2017-08-05 06:00:00 26.2 8 Norte 12 Norte 0 -- -- 69
2017-08-05 05:00:00 26.8 0 Calma 3 Este 0 -- -- 69
2017-08-05 04:00:00 27.2 4 Este 7 Este 0 -- -- 67
2017-08-05 03:00:00 27.4 3 Sudeste 7 Este 0 -- -- 67
2017-08-05 02:00:00 27.6 0 Calma 4 Sudeste 0 -- -- 70
2017-08-05 01:00:00 28.7 5 Sudeste 9 Sudeste 0 -- -- 58
2017-08-05 00:00:00 28.6 5 Sudeste 8 Sudeste 0 -- -- 64
2017-08-04 23:00:00 28.5 5 Sudeste 8 Sudeste 0 -- -- 66
2017-08-04 22:00:00 27.6 7 Sudeste 10 Sudeste 0 -- -- 75
2017-08-04 21:00:00 27.9 4 Sudeste 8 Sudeste 0 -- -- 80
2017-08-04 20:00:00 28.9 7 Sudeste 13 Sudeste 0 -- -- 73
2017-08-04 19:00:00 29.2 8 Sur 15 Sur 0 -- -- 74
2017-08-04 18:00:00 28.6 12 Sur 20 Sur 0 -- -- 77
2017-08-04 17:00:00 28.7 17 Sur 24 Sur 0 -- -- 75
2017-08-04 16:00:00 28.6 20 Sur 25 Sur 0 -- -- 71
2017-08-04 15:00:00 29.5 19 Sur 24 Sur 0 -- -- 63
2017-08-04 14:00:00 30.2 17 Sur 22 Sur 0 -- -- 57
2017-08-04 13:00:00 29.7 17 Sur 23 Sur 0 -- -- 60
2017-08-04 12:00:00 28.9 15 Sur 19 Sur 0 -- -- 63
2017-08-04 11:00:00 28.3 11 Sur 14 Sur 0 -- -- 59
2017-08-04 10:00:00 30.3 3 Este 12 Nordeste 0 -- -- 55
2017-08-04 09:00:00 27.8 6 Nordeste 9 Nordeste 0 -- -- 64
2017-08-04 08:00:00 26.3 7 Nordeste 11 Nordeste 0 -- -- 73
2017-08-04 07:00:00 25.4 6 Nordeste 9 Nordeste 0 -- -- 78
2017-08-04 06:00:00 25.6 6 Nordeste 10 Nordeste 0 -- -- 80
2017-08-04 05:00:00 25.4 6 Nordeste 10 Nordeste 0 -- -- 84
2017-08-04 04:00:00 25.6 5 Este 8 Este 0 -- -- 84
2017-08-04 03:00:00 25.4 5 Este 6 Este 0 -- -- 86
2017-08-04 02:00:00 25.4 3 Este 5 Este 0 -- -- 90
2017-08-04 01:00:00 25.7 2 Este 16 Sudeste 0 -- -- 91
2017-08-04 00:00:00 25.9 14 Sudeste 23 Sudeste 0 -- -- 91
2017-08-03 23:00:00 25.9 10 Este 14 Este 0 -- -- 91
2017-08-03 22:00:00 26.1 9 Este 13 Este 0 -- -- 89
2017-08-03 21:00:00 26 9 Este 13 Este 0 -- -- 91
2017-08-03 20:00:00 26.7 11 Este 13 Este 0 -- -- 85
2017-08-03 19:00:00 27.2 9 Este 15 Este 0 -- -- 81
2017-08-03 18:00:00 27.2 13 Este 16 Este 0 -- -- 79
2017-08-03 17:00:00 27 12 Este 20 Este 0 -- -- 79
2017-08-03 16:00:00 26.3 15 Este 23 Este 0 -- -- 82
2017-08-03 15:00:00 25.5 17 Este 23 Este 0 -- -- 88
2017-08-03 14:00:00 25.1 18 Este 24 Este 0 -- -- 92
2017-08-03 13:00:00 25.3 16 Este 26 Este 0 -- -- 89
2017-08-03 12:00:00 26.6 21 Este 27 Este 0 -- -- 83
2017-08-03 11:00:00 27.2 24 Sudeste 36 Sudeste 0 -- -- 80
2017-08-03 10:00:00 31.5 8 Noroeste 21 Norte 0 -- -- 42
2017-08-03 09:00:00 29.1 10 Norte 18 Norte 0 -- -- 51
2017-08-03 08:00:00 26.7 12 Norte 20 Norte 0 -- -- 65
2017-08-03 07:00:00 26.2 9 Norte 13 Norte 0 -- -- 73
2017-08-03 06:00:00 25.8 4 Norte 10 Norte 0 -- -- 84
2017-08-03 05:00:00 26 9 Norte 14 Norte 0 -- -- 91
2017-08-03 04:00:00 25.7 3 Sur 8 Sur 0 -- -- 97
2017-08-03 03:00:00 25.8 7 Sur 15 Sur 0 -- -- 97
2017-08-03 02:00:00 26.5 3 Sur 9 Sur 0 -- -- 89
2017-08-03 01:00:00 26.4 8 Sur 10 Sur 0 -- -- 93
2017-08-03 00:00:00 26.8 3 Sur 9 Sur 0 -- -- 90
2017-08-02 23:00:00 28.4 4 Sur 8 Sur 0 -- -- 73
2017-08-02 22:00:00 26.8 3 Sur 4 Sur 0 -- -- 86
2017-08-02 21:00:00 27.5 0 Calma 18 Sur 0 -- -- 85
2017-08-02 20:00:00 28.2 9 Sudoeste 18 Sur 0 -- -- 81
2017-08-02 19:00:00 30.5 9 Oeste 23 Oeste 0 -- -- 57
2017-08-02 18:00:00 27.3 9 Sudeste 18 Nordeste 0 -- -- 80
2017-08-02 17:00:00 26.5 18 Este 22 Este 0 -- -- 83
2017-08-02 16:00:00 27 12 Este 18 Este 0 -- -- 81
2017-08-02 15:00:00 26.9 15 Este 23 Este 0 -- -- 80
2017-08-02 14:00:00 27.2 14 Este 26 Este 0 -- -- 75
2017-08-02 13:00:00 26.8 20 Este 26 Este 0 -- -- 77
2017-08-02 12:00:00 26.6 21 Este 24 Este 0 -- -- 72
2017-08-02 11:00:00 27.4 8 Este 13 Este 0 -- -- 69
2017-08-02 10:00:00 27.9 5 Norte 9 Norte 0 -- -- 64
2017-08-02 09:00:00 27.8 2 Norte 12 Norte 0 -- -- 59
2017-08-02 08:00:00 25.6 5 Norte 12 Noroeste 0 -- -- 68
2017-08-02 07:00:00 24.6 9 Norte 14 Norte 0 -- -- 74
2017-08-02 06:00:00 24.7 8 Norte 13 Norte 0 -- -- 74
2017-08-02 05:00:00 25.1 6 Norte 14 Nordeste 0 -- -- 76
2017-08-02 04:00:00 25.6 9 Norte 16 Norte 0 -- -- 71
2017-08-02 03:00:00 26 10 Norte 17 Norte 0 -- -- 72
2017-08-02 02:00:00 26.1 10 Noroeste 20 Noroeste 0 -- -- 78
2017-08-02 01:00:00 26.2 10 Norte 17 Norte 0 -- -- 83
2017-08-02 00:00:00 26.2 9 Norte 17 Norte 0 -- -- 82
2017-08-01 23:00:00 25.8 6 Norte 11 Norte 0 -- -- 89
2017-08-01 22:00:00 25.4 5 Nordeste 17 Nordeste 0 -- -- 92
2017-08-01 21:00:00 25.4 11 Este 28 Este 0 -- -- 93
2017-08-01 20:00:00 25.2 27 Este 37 Este 0.1 -- -- 94
2017-08-01 19:00:00 25.5 16 Este 24 Este 0 -- -- 92
2017-08-01 18:00:00 26 9 Norte 18 Nordeste 0 -- -- 90
2017-08-01 17:00:00 26 8 Sudeste 15 Sudeste 0 -- -- 90
2017-08-01 16:00:00 26.4 14 Sudeste 29 Sudeste 0.2 -- -- 89
2017-08-01 15:00:00 27.1 24 Sudeste 28 Sudeste 0 -- -- 82
2017-08-01 14:00:00 27.1 16 Este 26 Este 0.2 -- -- 81
2017-08-01 13:00:00 26.6 10 Nordeste 21 Este 0 -- -- 83
2017-08-01 12:00:00 26.1 11 Este 18 Este 0 -- -- 82
2017-08-01 11:00:00 26.6 12 Este 22 Este 0 -- -- 79
2017-08-01 10:00:00 26.1 15 Este 24 Este 0 -- -- 81
2017-08-01 09:00:00 25.3 17 Este 24 Este 0 -- -- 85
2017-08-01 08:00:00 25.1 13 Nordeste 22 Este 0 -- -- 87
2017-08-01 07:00:00 24.8 17 Nordeste 25 Este 0 -- -- 90
2017-08-01 06:00:00 24.6 15 Nordeste 37 Este 0 -- -- 89
2017-08-01 05:00:00 25 30 Este 35 Este 0 -- -- 91
2017-08-01 04:00:00 25.2 25 Este 28 Este 0 -- -- 91
2017-08-01 03:00:00 25.2 19 Nordeste 29 Este 0 -- -- 91
2017-08-01 02:00:00 25.3 22 Este 28 Este 0 -- -- 92
2017-08-01 01:00:00 25.4 21 Este 28 Este 0 -- -- 91
2017-08-01 00:00:00 25.4 23 Este 32 Este 0 -- -- 93
2017-07-31 23:00:00 25.3 25 Este 32 Este 0 -- -- 94
2017-07-31 22:00:00 25.3 27 Este 32 Este 0 -- -- 94
2017-07-31 21:00:00 25.2 28 Este 36 Este 0 -- -- 93
2017-07-31 20:00:00 25.4 28 Este 33 Este 0 -- -- 91
2017-07-31 19:00:00 25.8 27 Este 35 Este 0 -- -- 86
2017-07-31 18:00:00 26.1 30 Este 34 Este 0 -- -- 83
2017-07-31 17:00:00 26.4 26 Este 32 Este 0 -- -- 81
2017-07-31 16:00:00 26.7 28 Este 35 Este 0 -- -- 79
2017-07-31 15:00:00 26.6 22 Este 30 Este 0 -- -- 77
2017-07-31 14:00:00 26.4 24 Este 31 Este 0 -- -- 80
2017-07-31 13:00:00 26 26 Este 31 Este 0 -- -- 82
2017-07-31 12:00:00 25.6 31 Este 39 Este 0 -- -- 81
2017-07-31 11:00:00 25.3 31 Este 41 Este 0 -- -- 80
2017-07-31 10:00:00 25.1 32 Este 36 Este 0 -- -- 77
2017-07-31 09:00:00 25.7 15 Este 28 Nordeste 0 -- -- 72
2017-07-31 08:00:00 25 25 Este 36 Este 0 -- -- 77
2017-07-31 07:00:00 24.3 17 Este 28 Nordeste 0 -- -- 80
2017-07-31 06:00:00 24.3 6 Nordeste 32 Este 0 -- -- 82
2017-07-31 05:00:00 24.5 27 Este 34 Este 0 -- -- 86
2017-07-31 04:00:00 24.5 26 Este 30 Este 0 -- -- 87
2017-07-31 03:00:00 24.7 26 Este 32 Este 0 -- -- 89
2017-07-31 02:00:00 24.9 10 Nordeste 17 Nordeste 0 -- -- 85
2017-07-31 01:00:00 25 12 Este 21 Este 0 -- -- 93
2017-07-31 00:00:00 25.2 10 Nordeste 15 Este 0 -- -- 89
2017-07-30 23:00:00 25.2 11 Nordeste 17 Nordeste 0 -- -- 93
2017-07-30 22:00:00 25.1 14 Este 18 Este 0 -- -- 93
2017-07-30 21:00:00 25.2 14 Este 19 Este 0 -- -- 91
2017-07-30 20:00:00 25.6 15 Este 22 Este 0 -- -- 89
2017-07-30 19:00:00 26.1 17 Este 26 Este 0 -- -- 87
2017-07-30 18:00:00 26.3 22 Este 28 Este 0 -- -- 85
2017-07-30 17:00:00 26.7 21 Este 25 Este 0 -- -- 83
2017-07-30 16:00:00 27.8 19 Este 22 Este 0 -- -- 76
2017-07-30 15:00:00 28.7 15 Este 18 Este 0 -- -- 70
2017-07-30 14:00:00 29 12 Este 17 Este 0 -- -- 68
2017-07-30 13:00:00 28.7 13 Este 17 Este 0 -- -- 70
2017-07-30 12:00:00 27.5 14 Este 18 Este 0 -- -- 76
2017-07-30 11:00:00 27 11 Este 15 Este 0 -- -- 73
2017-07-30 10:00:00 27.4 8 Este 12 Este 0 -- -- 59
2017-07-30 09:00:00 26.8 3 Norte 10 Norte 0 -- -- 60
2017-07-30 08:00:00 24.7 6 Norte 10 Norte 0 -- -- 67
2017-07-30 07:00:00 23.8 7 Norte 11 Norte 0 -- -- 72
2017-07-30 06:00:00 23.8 6 Norte 9 Norte 0 -- -- 73
2017-07-30 05:00:00 24.3 6 Norte 8 Norte 0 -- -- 73
2017-07-30 04:00:00 24.7 2 Oeste 6 Oeste 0 -- -- 73
2017-07-30 03:00:00 25.5 4 Oeste 9 Oeste 0 -- -- 80
2017-07-30 02:00:00 25.4 5 Oeste 11 Sur 0 -- -- 83
2017-07-30 01:00:00 25.7 8 Sudoeste 12 Sudoeste 0 -- -- 79
2017-07-30 00:00:00 26.1 7 Sudoeste 12 Sudoeste 0 -- -- 77
2017-07-29 23:00:00 26.1 5 Sudoeste 12 Sudoeste 0 -- -- 78
2017-07-29 22:00:00 25.9 10 Sur 17 Sur 0 -- -- 85
2017-07-29 21:00:00 26 13 Sur 16 Sur 0 -- -- 82
2017-07-29 20:00:00 26.8 12 Sur 18 Sur 0 -- -- 77
2017-07-29 19:00:00 27.3 13 Sur 18 Sur 0 -- -- 74
2017-07-29 18:00:00 27.4 13 Sur 17 Sur 0 -- -- 79
2017-07-29 17:00:00 27.6 11 Sur 19 Sur 0 -- -- 77
2017-07-29 16:00:00 28.4 13 Sudeste 19 Sudeste 0 -- -- 71
2017-07-29 15:00:00 27.4 10 Sudeste 21 Sudeste 0 -- -- 76
2017-07-29 14:00:00 26.9 12 Sudeste 19 Sudeste 0 -- -- 76
2017-07-29 13:00:00 26.9 15 Sudeste 20 Sudeste 0 -- -- 75
2017-07-29 12:00:00 26.8 12 Este 17 Este 0 -- -- 73
2017-07-29 11:00:00 26.5 9 Este 13 Este 0 -- -- 76
2017-07-29 10:00:00 25.9 6 Este 10 Este 0 -- -- 76
2017-07-29 09:00:00 25.3 5 Nordeste 11 Norte 0 -- -- 70
2017-07-29 08:00:00 24.1 5 Noroeste 12 Norte 0 -- -- 77
2017-07-29 07:00:00 22.9 7 Norte 12 Norte 0 -- -- 83
2017-07-29 06:00:00 23.1 5 Norte 9 Norte 0 -- -- 85
2017-07-29 05:00:00 23.3 5 Norte 9 Norte 0 -- -- 84
2017-07-29 04:00:00 23.5 5 Norte 9 Norte 0 -- -- 84
2017-07-29 03:00:00 23.8 7 Norte 14 Este 0 -- -- 86
2017-07-29 02:00:00 24.2 9 Este 14 Este 0 -- -- 87
2017-07-29 01:00:00 24.4 11 Este 17 Este 0 -- -- 85
2017-07-29 00:00:00 24.6 11 Este 20 Este 0 -- -- 84
2017-07-28 23:00:00 24.8 15 Este 23 Este 0 -- -- 84
2017-07-28 22:00:00 24.9 17 Este 22 Este 0 -- -- 84
2017-07-28 21:00:00 25.2 13 Este 17 Este 0 -- -- 81
2017-07-28 20:00:00 26.4 8 Sudeste 15 Sudeste 0 -- -- 73
2017-07-28 19:00:00 26.7 14 Sudeste 18 Sudeste 0 -- -- 68
2017-07-28 18:00:00 27.2 16 Este 23 Este 0 -- -- 64
2017-07-28 17:00:00 27.3 17 Este 25 Sudeste 0 -- -- 64
2017-07-28 16:00:00 27.2 20 Sudeste 27 Sudeste 0 -- -- 66
2017-07-28 15:00:00 27 20 Sudeste 26 Sudeste 0 -- -- 68
2017-07-28 14:00:00 26.6 21 Sudeste 27 Sudeste 0 -- -- 68
2017-07-28 13:00:00 27.5 15 Sudeste 19 Este 0 -- -- 73
2017-07-28 12:00:00 27.4 14 Este 17 Este 0 -- -- 73
2017-07-28 11:00:00 27 11 Este 14 Este 0 -- -- 74
2017-07-28 10:00:00 27 8 Este 11 Este 0 -- -- 75
2017-07-28 09:00:00 26 6 Este 9 Este 0 -- -- 84
2017-07-28 08:00:00 24.9 4 Norte 10 Norte 0 -- -- 86
2017-07-28 07:00:00 24.6 4 Norte 8 Norte 0 -- -- 90
2017-07-28 06:00:00 24.4 4 Sudoeste 7 Sudoeste 0 -- -- 90
2017-07-28 05:00:00 24.5 4 Sur 5 Sur 0 -- -- 93
2017-07-28 04:00:00 24.7 4 Sur 8 Sur 0 -- -- 93
2017-07-28 03:00:00 24.8 5 Sur 9 Sur 0 -- -- 94
2017-07-28 02:00:00 24.9 8 Sur 10 Sur 0 -- -- 93
2017-07-28 01:00:00 25.5 4 Sudoeste 11 Oeste 0 -- -- 85
2017-07-28 00:00:00 25.7 6 Sudoeste 14 Oeste 0 -- -- 85
2017-07-27 23:00:00 25.7 9 Sudoeste 20 Sudoeste 0 -- -- 84
2017-07-27 22:00:00 26.2 11 Sudoeste 24 Sudoeste 0 -- -- 81
2017-07-27 21:00:00 26.6 9 Sudoeste 27 Sudoeste 0 -- -- 79
2017-07-27 20:00:00 26.6 20 Sur 30 Sudoeste 0 -- -- 81
2017-07-27 19:00:00 27.3 19 Sudoeste 33 Sur 0 -- -- 76
2017-07-27 18:00:00 26.3 25 Sur 34 Sur 0 -- -- 84
2017-07-27 17:00:00 26.2 26 Sur 33 Sur 0 -- -- 84
2017-07-27 16:00:00 26.4 26 Sur 34 Sudoeste 0 -- -- 78
2017-07-27 15:00:00 26.4 22 Sur 33 Sudoeste 0 -- -- 79
2017-07-27 14:00:00 25.9 24 Sur 33 Sur 0 -- -- 76
2017-07-27 13:00:00 25.5 25 Sur 31 Sur 0 -- -- 76
2017-07-27 12:00:00 25 21 Sur 27 Sur 0 -- -- 73
2017-07-27 11:00:00 25.1 15 Sur 21 Sur 0 -- -- 70
2017-07-27 10:00:00 25.4 8 Sudeste 17 Sudoeste 0 -- -- 67
2017-07-27 09:00:00 25.3 3 Nordeste 9 Nordeste 0 -- -- 64
2017-07-27 08:00:00 23.8 5 Noroeste 10 Norte 0 -- -- 68
2017-07-27 07:00:00 21.6 6 Norte 9 Norte 0 -- -- 74
2017-07-27 06:00:00 21.8 7 Norte 9 Norte 0 -- -- 74
2017-07-27 05:00:00 22.2 5 Norte 10 Norte 0 -- -- 71
2017-07-27 04:00:00 22.3 6 Norte 10 Norte 0 -- -- 70
2017-07-27 03:00:00 22.8 5 Norte 10 Norte 0 -- -- 68
2017-07-27 02:00:00 23.7 4 Oeste 9 Sur 0 -- -- 68
2017-07-27 01:00:00 23.7 4 Sudoeste 8 Sudoeste 0 -- -- 68
2017-07-27 00:00:00 23.6 3 Sur 9 Sudeste 0 -- -- 67
2017-07-26 23:00:00 23.8 5 Sudeste 9 Sudeste 0 -- -- 65
2017-07-26 22:00:00 24 4 Sur 10 Sudeste 0 -- -- 62
2017-07-26 21:00:00 24.3 7 Sur 15 Sur 0 -- -- 61
2017-07-26 20:00:00 25.1 9 Sur 18 Sur 0 -- -- 63
2017-07-26 19:00:00 24.9 13 Sur 22 Sur 0 -- -- 65
2017-07-26 18:00:00 25 15 Sur 24 Sur 0 -- -- 67
2017-07-26 17:00:00 24.2 17 Sur 24 Sur 0 -- -- 69
2017-07-26 16:00:00 24.4 17 Sur 26 Sur 0 -- -- 68
2017-07-26 15:00:00 24.2 18 Sur 28 Sur 0 -- -- 65
2017-07-26 14:00:00 24.9 16 Sur 22 Sur 0 -- -- 64
2017-07-26 13:00:00 24.9 13 Sudeste 21 Sudeste 0 -- -- 64
2017-07-26 12:00:00 24.4 9 Sudeste 15 Sudeste 0 -- -- 64
2017-07-26 11:00:00 24.2 9 Sudeste 15 Norte 0 -- -- 64
2017-07-26 10:00:00 22.8 8 Norte 19 Norte 0 -- -- 59
2017-07-26 09:00:00 22 8 Norte 21 Norte 0 -- -- 62
2017-07-26 08:00:00 21.4 9 Norte 20 Norte 0 -- -- 63
2017-07-26 07:00:00 21.3 8 Norte 19 Norte 0 -- -- 78
2017-07-26 06:00:00 21.8 10 Norte 37 Noroeste 0.1 -- -- 82
2017-07-26 05:00:00 22.1 10 Noroeste 19 Noroeste 0 -- -- 82
2017-07-26 04:00:00 21.9 8 Nordeste 15 Nordeste 0 -- -- 86
2017-07-26 03:00:00 22 7 Nordeste 13 Nordeste 0 -- -- 88
2017-07-26 02:00:00 22.1 8 Nordeste 40 Este 0 -- -- 86
2017-07-26 01:00:00 22.2 12 Nordeste 25 Nordeste 0.1 -- -- 87
2017-07-26 00:00:00 23.6 17 Sur 31 Sur 0.4 -- -- 79
2017-07-25 23:00:00 24.2 17 Sur 27 Sur 0 -- -- 73
2017-07-25 22:00:00 24.2 20 Sur 27 Sur 0 -- -- 73
2017-07-25 21:00:00 24 18 Sur 29 Sur 0 -- -- 72
2017-07-25 20:00:00 23.9 22 Sur 35 Sur 0 -- -- 72
2017-07-25 19:00:00 24.1 27 Sur 37 Sur 0 -- -- 73
2017-07-25 18:00:00 24.2 24 Sur 33 Sur 0 -- -- 72
2017-07-25 17:00:00 24.5 23 Sur 35 Sudoeste 0 -- -- 69
2017-07-25 16:00:00 24.8 26 Sudoeste 40 Sudoeste 0 -- -- 64
2017-07-25 15:00:00 24.7 25 Sur 34 Sur 0 -- -- 65
2017-07-25 14:00:00 24.6 22 Sur 30 Sur 0 -- -- 64
2017-07-25 13:00:00 24.6 19 Sur 25 Sur 0 -- -- 62
2017-07-25 12:00:00 25 9 Sudoeste 15 Sur 0 -- -- 60
2017-07-25 11:00:00 24.7 5 Oeste 13 Norte 0 -- -- 56
2017-07-25 10:00:00 23 8 Noroeste 19 Noroeste 0 -- -- 57
2017-07-25 09:00:00 22.3 9 Noroeste 19 Norte 0 -- -- 58
2017-07-25 08:00:00 22.1 13 Noroeste 20 Noroeste 0 -- -- 58
2017-07-25 07:00:00 22.9 7 Noroeste 14 Noroeste 0 -- -- 60
2017-07-25 06:00:00 23 9 Oeste 15 Noroeste 0 -- -- 66
2017-07-25 05:00:00 23.6 6 Este 14 Nordeste 0 -- -- 72
2017-07-25 04:00:00 23.8 13 Este 28 Este 0 -- -- 71
2017-07-25 03:00:00 23.8 27 Este 34 Sudeste 0 -- -- 73
2017-07-25 02:00:00 24.2 28 Sudeste 35 Sudeste 0 -- -- 79
2017-07-25 01:00:00 24.1 27 Este 36 Este 0 -- -- 83
2017-07-25 00:00:00 24.3 26 Este 33 Este 0 -- -- 83
2017-07-24 23:00:00 24.3 29 Este 35 Este 0 -- -- 84
2017-07-24 22:00:00 24.4 28 Este 35 Este 0 -- -- 83
2017-07-24 21:00:00 24.7 26 Este 32 Este 0 -- -- 79
2017-07-24 20:00:00 25.2 25 Este 32 Este 0 -- -- 73
2017-07-24 19:00:00 25.7 26 Este 32 Este 0 -- -- 68
2017-07-24 18:00:00 25.7 26 Este 31 Este 0 -- -- 64
2017-07-24 17:00:00 26.9 20 Este 25 Este 0 -- -- 61
2017-07-24 16:00:00 27.1 15 Sudeste 42 Sudeste 0 -- -- 61
2017-07-24 15:00:00 27 12 Sudeste 21 Sur 0 -- -- 60
2017-07-24 14:00:00 25.8 17 Sur 26 Sur 0 -- -- 62
2017-07-24 13:00:00 25.9 19 Sur 25 Sur 0 -- -- 55
2017-07-24 12:00:00 26.9 14 Sur 18 Sur 0 -- -- 54
2017-07-24 11:00:00 25.3 9 Noroeste 25 Noroeste 0 -- -- 53
2017-07-24 10:00:00 24.5 9 Oeste 19 Oeste 0 -- -- 57
2017-07-24 09:00:00 23.7 5 Oeste 18 Oeste 0 -- -- 61
2017-07-24 08:00:00 23.3 11 Oeste 23 Noroeste 0 -- -- 65
2017-07-24 07:00:00 21.9 2 Norte 7 Norte 0 -- -- 86
2017-07-24 06:00:00 21.2 3 Norte 8 Norte 0 -- -- 89
2017-07-24 05:00:00 21.4 5 Norte 9 Norte 0 -- -- 87
2017-07-24 04:00:00 21.8 5 Norte 14 Norte 0 -- -- 86
2017-07-24 03:00:00 21.9 9 Noroeste 14 Noroeste 0 -- -- 86
2017-07-24 02:00:00 22.1 7 Norte 14 Norte 0 -- -- 85
2017-07-24 01:00:00 22.2 7 Noroeste 15 Nordeste 0 -- -- 86
2017-07-24 00:00:00 23.3 9 Este 22 Este 0 -- -- 82
2017-07-23 23:00:00 23.5 20 Este 33 Este 0 -- -- 82
2017-07-23 22:00:00 23.1 12 Sur 17 Sur 0 -- -- 87
2017-07-23 21:00:00 23 6 Sur 17 Noroeste 0.3 -- -- 86
2017-07-23 20:00:00 22.4 5 Noroeste 40 Sudoeste 2.9 -- -- 80
2017-07-23 19:00:00 24.7 19 Sudoeste 29 Sudoeste 0 -- -- 73
2017-07-23 18:00:00 25.7 9 Sudeste 17 Sudeste 0 -- -- 67
2017-07-23 17:00:00 25.6 12 Sudeste 26 Este 0 -- -- 68
2017-07-23 16:00:00 26.2 16 Este 24 Sudeste 0 -- -- 66
2017-07-23 15:00:00 25.7 19 Sudeste 23 Sudeste 0 -- -- 68
2017-07-23 14:00:00 27.1 19 Sudeste 23 Sudeste 0 -- -- 63
2017-07-23 13:00:00 26.5 15 Sudeste 19 Sudeste 0 -- -- 68
2017-07-23 12:00:00 26.6 12 Sudeste 17 Sudeste 0 -- -- 68
2017-07-23 11:00:00 27.1 14 Sudeste 19 Este 0 -- -- 65
2017-07-23 10:00:00 27.1 10 Este 15 Este 0 -- -- 70
2017-07-23 09:00:00 26.2 3 Norte 13 Norte 0 -- -- 70
2017-07-23 08:00:00 25.4 5 Nordeste 15 Este 0 -- -- 78
2017-07-23 07:00:00 24.8 13 Este 23 Este 0 -- -- 79
2017-07-23 06:00:00 24.7 21 Este 33 Este 0 -- -- 80
2017-07-23 05:00:00 24.8 31 Este 37 Este 0 -- -- 82
2017-07-23 04:00:00 25 30 Este 34 Este 0 -- -- 86
2017-07-23 03:00:00 25.6 3 Oeste 10 Oeste 0 -- -- 77
2017-07-23 02:00:00 25.9 4 Oeste 18 Oeste 0 -- -- 77
2017-07-23 01:00:00 25.9 10 Sudoeste 19 Oeste 0 -- -- 79
2017-07-23 00:00:00 26.1 10 Sudoeste 22 Sudoeste 0 -- -- 79
2017-07-22 23:00:00 26.1 15 Sudoeste 26 Sudoeste 0 -- -- 78
2017-07-22 22:00:00 26 19 Sudoeste 24 Sudoeste 0 -- -- 78
2017-07-22 21:00:00 26.6 17 Sudoeste 24 Sudoeste 0 -- -- 73
2017-07-22 20:00:00 26.6 16 Sur 27 Sur 0 -- -- 77
2017-07-22 19:00:00 26 22 Sur 28 Sur 0 -- -- 79
2017-07-22 18:00:00 25.8 20 Sur 26 Sur 0 -- -- 77
2017-07-22 17:00:00 26.3 19 Sur 26 Sur 0 -- -- 75
2017-07-22 16:00:00 26.9 12 Sur 20 Sur 0 -- -- 71
2017-07-22 15:00:00 26.7 14 Sur 20 Sur 0 -- -- 72
2017-07-22 14:00:00 27.1 12 Sur 24 Sudeste 0 -- -- 69
2017-07-22 13:00:00 26.3 15 Sudeste 24 Sudeste 0 -- -- 68
2017-07-22 12:00:00 25.9 17 Sudeste 21 Sudeste 0 -- -- 71
2017-07-22 11:00:00 25.4 15 Este 21 Este 0 -- -- 71
2017-07-22 10:00:00 25.1 14 Este 22 Este 0 -- -- 77
2017-07-22 09:00:00 23.7 9 Nordeste 14 Nordeste 0 -- -- 78
2017-07-22 08:00:00 23.4 8 Norte 13 Norte 0 -- -- 77
2017-07-22 07:00:00 22.5 9 Norte 14 Norte 0 -- -- 79
2017-07-22 06:00:00 22.9 7 Norte 14 Norte 0 -- -- 81
2017-07-22 05:00:00 23.6 5 Norte 8 Noroeste 0 -- -- 80
2017-07-22 04:00:00 23.6 3 Noroeste 9 Norte 0 -- -- 80
2017-07-22 03:00:00 24.1 4 Norte 9 Sudoeste 0 -- -- 78
2017-07-22 02:00:00 24.6 4 Oeste 15 Oeste 0 -- -- 78
2017-07-22 01:00:00 24.7 7 Oeste 14 Sudoeste 0 -- -- 78
2017-07-22 00:00:00 24.8 6 Sudoeste 17 Sudoeste 0 -- -- 76